Токио, Јапонија

02:12 AM JST на 20 Јули, 2018 (GMT +0900)
Kamata | | Change Station

Elev 30 ft 35.57 °N, 139.70 °E | Updated 11 seconds ago

Умерено облачно
Умерено облачно
82.5 °F
Feels Like 91 °F
С
3
Ветер Променлив Ветер from Север
Gusts 8.0 mph

Денес
High -- | Low -- °F
--% Chance of Precip.
Вчера
High -- | Low -- °F
Precip. -- инчи
Притисок 29.83 инчи
Видливост 6.2 миљи
Облаци Few 900 ft
Индекс на топлина 91 °F
Точка на kондензација 78 °F
Влажност 85%
Дожд 0.00 инчи
Височина на снег Not available.
4:40 AM 6:54 PM
Првиот квартал, 49% visible
METAR RJTT 191700Z 20013KT 9999 FEW009 28/25 Q1010 NOSIG RMK 1ST009 A2983
Притисок 29.83 инчи
Видливост 6.2 миљи
Облаци Few 900 ft
Индекс на топлина 91 °F
Точка на kондензација 78 °F
Влажност 85%
Дожд 0.00 инчи
Височина на снег Not available.
4:40 AM 6:54 PM
Првиот квартал, 49% visible
METAR RJTT 191700Z 20013KT 9999 FEW009 28/25 Q1010 NOSIG RMK 1ST009 A2983

Get Severe Weather Alerts

Thanks for signing up!

Be on the lookout for a verification email in your inbox.

You'll start receiving the daily forecast at 6 AM.

×

10-Day Weather Forecast

No radar image for this location.
×

Almanac

Астрономијата

Jul. 20, 2018 Изгревање Заоѓање
Актуелно време
Граѓанскиот самрак
Наутички самрак
Астрономски самрак
Месечината
Должина на видливата светлина
Должина на денот
Tomorrow will be .
, % of the Moon is Illuminated

Екстреми денес

Country Highs Country Lows

Community

WunderPhotos

Category 6

Welcome to Category 6. This is the collective home for Weather Underground's featured writeups by Dr. Jeff Masters (right), Bob Henson (left), Chris Burt, and other regular contributors.

Nearby

Квалитетот на воздухот

  Квалитетот на воздухот AQ индекс Загадувач
Not available.

Височина на снег

Station Depth Висина

Earthquake Activity

Град Distance Mag. Time & Date
Minimum magnitude displayed is 2.5.

Coastal Water Temperatures

Место Температура

Stations

Nearby Weather Stations

Локација на станицата Темп. Лични чувство за темп. со ветерот Точка на kондензација Влажност Ветер Precip. Elev Ажурирани Тип